createdAt,value
2019-03-10T00:00:37.166Z,11.91
2019-03-10T00:03:08.144Z,11.89
2019-03-10T00:05:38.934Z,11.85
2019-03-10T00:08:09.809Z,11.88
2019-03-10T00:10:40.498Z,11.99
2019-03-10T00:13:11.178Z,11.87
2019-03-10T00:15:42.055Z,11.88
2019-03-10T00:18:12.954Z,11.87
2019-03-10T00:20:44.149Z,11.91
2019-03-10T00:23:14.961Z,11.89
2019-03-10T00:25:45.867Z,11.93
2019-03-10T00:28:16.701Z,11.92
2019-03-10T00:30:47.544Z,11.88
2019-03-10T00:33:18.343Z,11.92
2019-03-10T00:35:49.149Z,11.87
2019-03-10T00:38:20.010Z,11.93
2019-03-10T00:41:37.212Z,12.00
2019-03-10T00:44:47.159Z,11.96
2019-03-10T00:48:01.337Z,11.91
2019-03-10T00:51:06.632Z,11.98
2019-03-10T00:53:37.320Z,11.96
2019-03-10T00:56:08.222Z,11.99
2019-03-10T00:58:39.300Z,11.96
2019-03-10T01:01:10.211Z,11.96
2019-03-10T01:03:41.790Z,11.96
2019-03-10T01:06:12.595Z,11.98
2019-03-10T01:08:43.466Z,11.97
2019-03-10T01:11:14.317Z,11.99
2019-03-10T01:13:45.205Z,11.96
2019-03-10T01:16:17.739Z,11.93
2019-03-10T01:18:49.343Z,12.00
2019-03-10T01:21:21.144Z,11.91
2019-03-10T01:23:52.045Z,11.87
2019-03-10T01:26:22.935Z,11.90
2019-03-10T01:28:53.823Z,11.95
2019-03-10T01:31:32.630Z,12.03
2019-03-10T01:34:50.065Z,11.94
2019-03-10T01:37:20.868Z,11.93
2019-03-10T01:39:51.754Z,11.88
2019-03-10T01:42:22.466Z,11.87
2019-03-10T01:44:53.401Z,11.86
2019-03-10T01:47:24.337Z,11.85
2019-03-10T01:49:55.117Z,11.84
2019-03-10T01:52:25.888Z,11.83
2019-03-10T01:54:56.454Z,11.85
2019-03-10T01:57:27.244Z,11.85
2019-03-10T01:59:59.069Z,11.84
2019-03-10T02:02:29.835Z,11.84
2019-03-10T02:05:00.518Z,11.82
2019-03-10T02:07:31.312Z,11.81
2019-03-10T02:10:02.578Z,11.82
2019-03-10T02:12:34.210Z,11.82
2019-03-10T02:15:05.294Z,11.79
2019-03-10T02:17:36.322Z,11.85
2019-03-10T02:20:09.630Z,11.88
2019-03-10T02:22:40.350Z,11.82
2019-03-10T02:25:11.121Z,11.74
2019-03-10T02:27:41.918Z,11.72
2019-03-10T02:30:15.435Z,11.70
2019-03-10T02:32:46.161Z,11.71
2019-03-10T02:35:17.819Z,11.74
2019-03-10T02:37:48.612Z,11.78
2019-03-10T02:40:19.423Z,11.78
2019-03-10T02:42:50.211Z,11.82
2019-03-10T02:45:20.970Z,11.76
2019-03-10T02:47:52.716Z,11.77
2019-03-10T02:50:23.677Z,11.80
2019-03-10T02:52:54.483Z,11.78
2019-03-10T02:55:25.256Z,11.81
2019-03-10T02:57:55.952Z,11.75
2019-03-10T03:00:26.797Z,11.80
2019-03-10T03:02:57.383Z,11.73
2019-03-10T03:05:28.251Z,11.72
2019-03-10T03:07:59.053Z,11.72
2019-03-10T03:10:29.855Z,11.70
2019-03-10T03:13:00.668Z,11.69
2019-03-10T03:15:31.548Z,11.66
2019-03-10T03:18:02.225Z,11.63
2019-03-10T03:20:33.176Z,11.65
2019-03-10T03:23:03.972Z,11.64
2019-03-10T03:25:34.951Z,11.67
2019-03-10T03:28:05.807Z,11.59
2019-03-10T03:30:36.711Z,11.58
2019-03-10T03:33:07.700Z,11.56
2019-03-10T03:36:05.363Z,11.51
2019-03-10T03:38:38.443Z,11.48
2019-03-10T03:41:12.223Z,11.43
2019-03-10T03:43:42.824Z,11.38
2019-03-10T03:46:13.673Z,11.36
2019-03-10T03:48:44.322Z,11.36
2019-03-10T03:51:15.194Z,11.25
2019-03-10T03:53:45.886Z,11.27
2019-03-10T03:56:16.768Z,11.24
2019-03-10T03:58:47.567Z,11.24
2019-03-10T04:01:21.895Z,11.24
2019-03-10T04:03:52.710Z,11.28
2019-03-10T04:06:23.669Z,11.40
2019-03-10T04:08:54.593Z,11.40
2019-03-10T04:11:25.264Z,11.43
2019-03-10T04:13:56.061Z,11.53
2019-03-10T04:16:26.734Z,11.55
2019-03-10T04:18:57.395Z,11.59
2019-03-10T04:21:28.206Z,11.69
2019-03-10T04:23:58.990Z,11.74
2019-03-10T04:26:30.087Z,11.73
2019-03-10T04:29:00.775Z,11.77
2019-03-10T04:31:31.819Z,11.82
2019-03-10T04:34:02.752Z,11.82
2019-03-10T04:36:33.526Z,11.88
2019-03-10T04:39:05.604Z,11.94
2019-03-10T04:41:36.641Z,12.03
2019-03-10T04:44:07.423Z,12.05
2019-03-10T04:46:38.271Z,12.10
2019-03-10T04:49:09.162Z,12.12
2019-03-10T04:51:39.839Z,12.19
2019-03-10T04:54:10.539Z,12.23
2019-03-10T04:57:03.229Z,12.27
2019-03-10T04:59:33.942Z,12.32
2019-03-10T05:02:04.943Z,12.31
2019-03-10T05:04:35.724Z,12.31
2019-03-10T05:07:07.375Z,12.35
2019-03-10T05:09:38.010Z,12.36
2019-03-10T05:12:09.143Z,12.42
2019-03-10T05:14:40.870Z,12.47
2019-03-10T05:17:11.859Z,12.49
2019-03-10T05:19:42.583Z,12.44
2019-03-10T05:22:13.440Z,12.52
2019-03-10T05:24:44.255Z,12.53
2019-03-10T05:27:15.011Z,12.56
2019-03-10T05:29:45.896Z,12.53
2019-03-10T05:32:17.003Z,12.54
2019-03-10T05:34:48.728Z,12.63
2019-03-10T05:37:20.413Z,12.65
2019-03-10T05:39:51.115Z,12.67
2019-03-10T05:42:21.884Z,12.75
2019-03-10T05:44:52.738Z,12.71
2019-03-10T05:47:23.457Z,12.72
2019-03-10T05:49:54.152Z,12.81
2019-03-10T05:52:25.103Z,12.88
2019-03-10T05:54:55.992Z,12.96
2019-03-10T05:57:26.878Z,12.96
2019-03-10T05:59:57.611Z,12.95
2019-03-10T06:02:28.339Z,12.94
2019-03-10T06:04:59.036Z,12.92
2019-03-10T06:07:29.711Z,13.00
2019-03-10T06:10:00.399Z,13.04
2019-03-10T06:12:32.302Z,13.08
2019-03-10T06:15:02.992Z,13.09
2019-03-10T06:17:33.934Z,13.16
2019-03-10T06:20:04.598Z,13.17
2019-03-10T06:22:35.392Z,13.18
2019-03-10T06:25:06.275Z,13.19
2019-03-10T06:27:36.949Z,13.18
2019-03-10T06:30:08.151Z,13.25
2019-03-10T06:32:38.941Z,13.30
2019-03-10T06:35:09.887Z,13.36
2019-03-10T06:37:40.675Z,13.37
2019-03-10T06:40:11.665Z,13.43
2019-03-10T06:42:42.568Z,13.47
2019-03-10T06:45:13.330Z,13.46
2019-03-10T06:47:44.421Z,13.44
2019-03-10T06:50:15.417Z,13.51
2019-03-10T06:52:46.198Z,13.46
2019-03-10T06:55:17.022Z,13.54
2019-03-10T06:57:47.854Z,13.53
2019-03-10T07:00:18.493Z,13.55
2019-03-10T07:02:49.615Z,13.53
2019-03-10T07:05:20.373Z,13.53
2019-03-10T07:07:51.141Z,13.54
2019-03-10T07:10:22.009Z,13.60
2019-03-10T07:12:52.684Z,13.60
2019-03-10T07:15:23.594Z,13.56
2019-03-10T07:17:54.487Z,13.40
2019-03-10T07:20:25.193Z,13.32
2019-03-10T07:22:56.213Z,13.25
2019-03-10T07:25:26.855Z,13.22
2019-03-10T07:28:24.121Z,13.15
2019-03-10T07:30:59.227Z,13.11
2019-03-10T07:33:35.636Z,13.10
2019-03-10T07:36:31.441Z,13.11
2019-03-10T07:39:33.179Z,13.08
2019-03-10T07:42:21.332Z,13.03
2019-03-10T07:45:17.183Z,12.97
2019-03-10T07:48:12.990Z,12.94
2019-03-10T07:51:02.815Z,12.94
2019-03-10T07:53:55.614Z,12.99
2019-03-10T07:56:44.072Z,13.00
2019-03-10T07:59:33.860Z,12.99
2019-03-10T08:02:23.458Z,12.99
2019-03-10T08:05:25.298Z,13.02
2019-03-10T08:08:23.952Z,13.04
2019-03-10T08:11:16.353Z,13.02
2019-03-10T08:14:12.282Z,13.05
2019-03-10T08:16:55.985Z,13.08
2019-03-10T08:19:45.713Z,13.03
2019-03-10T08:22:38.920Z,13.08
2019-03-10T08:25:37.851Z,13.08
2019-03-10T08:28:30.466Z,13.09
2019-03-10T08:31:23.920Z,13.11
2019-03-10T08:34:06.133Z,13.06
2019-03-10T08:36:45.910Z,13.04
2019-03-10T08:39:44.660Z,13.09
2019-03-10T08:42:30.286Z,13.07
2019-03-10T08:45:28.896Z,13.09
2019-03-10T08:48:21.558Z,13.13
2019-03-10T08:51:00.037Z,13.20
2019-03-10T08:53:55.571Z,13.32
2019-03-10T08:56:34.078Z,13.30
2019-03-10T08:59:23.826Z,13.37
2019-03-10T09:02:12.471Z,13.39
2019-03-10T09:04:50.474Z,13.38
2019-03-10T09:07:39.367Z,13.42
2019-03-10T09:10:30.038Z,13.45
2019-03-10T09:13:22.577Z,13.48
2019-03-10T09:16:06.731Z,13.50
2019-03-10T09:18:59.586Z,13.46
2019-03-10T09:21:50.095Z,13.47
2019-03-10T09:24:39.282Z,13.47
2019-03-10T09:27:28.646Z,13.50
2019-03-10T09:30:34.931Z,13.47
2019-03-10T09:33:30.692Z,13.45
2019-03-10T09:36:23.118Z,13.46
2019-03-10T09:39:12.636Z,13.43
2019-03-10T09:42:05.575Z,13.50
2019-03-10T09:45:01.602Z,13.59
2019-03-10T09:47:43.614Z,13.68
2019-03-10T09:50:31.875Z,13.86
2019-03-10T09:53:22.384Z,13.97
2019-03-10T09:56:15.115Z,14.06
2019-03-10T09:59:13.985Z,14.21
2019-03-10T10:02:12.979Z,14.10
2019-03-10T10:04:59.587Z,13.89
2019-03-10T10:07:52.383Z,13.77
2019-03-10T10:10:44.164Z,13.63
2019-03-10T10:13:27.020Z,13.55
2019-03-10T10:16:34.855Z,13.48
2019-03-10T10:19:25.384Z,13.39
2019-03-10T10:22:18.242Z,13.40
2019-03-10T10:25:09.657Z,13.45
2019-03-10T10:27:59.467Z,13.58
2019-03-10T10:30:47.722Z,13.49
2019-03-10T10:33:24.159Z,13.64
2019-03-10T10:36:13.841Z,13.75
2019-03-10T10:39:03.552Z,13.86
2019-03-10T10:41:50.053Z,13.79
2019-03-10T10:44:28.525Z,13.79
2019-03-10T10:47:14.464Z,13.90
2019-03-10T10:50:16.083Z,14.03
2019-03-10T10:53:03.839Z,13.97
2019-03-10T10:55:40.311Z,13.92
2019-03-10T10:58:36.618Z,13.92
2019-03-10T11:01:26.541Z,13.92
2019-03-10T11:04:16.431Z,13.82
2019-03-10T11:07:06.156Z,13.89
2019-03-10T11:09:55.966Z,13.90
2019-03-10T11:12:51.758Z,13.89
2019-03-10T11:15:32.146Z,13.99
2019-03-10T11:18:16.472Z,13.98
2019-03-10T11:21:09.333Z,13.94
2019-03-10T11:23:54.091Z,14.00
2019-03-10T11:26:46.866Z,14.11
2019-03-10T11:29:50.983Z,14.13
2019-03-10T11:32:31.647Z,14.34
2019-03-10T11:35:08.599Z,14.42
2019-03-10T11:38:10.400Z,14.51
2019-03-10T11:40:52.357Z,14.52
2019-03-10T11:43:27.939Z,14.59
2019-03-10T11:46:25.163Z,14.86
2019-03-10T11:49:12.567Z,14.58
2019-03-10T11:51:53.975Z,14.61
2019-03-10T11:54:32.108Z,14.81
2019-03-10T11:57:11.514Z,14.85
2019-03-10T11:59:56.048Z,14.86
2019-03-10T12:02:48.002Z,14.70
2019-03-10T12:05:24.469Z,14.64
2019-03-10T12:08:23.406Z,14.82
2019-03-10T12:10:54.091Z,14.93
2019-03-10T12:13:24.906Z,14.93
2019-03-10T12:15:55.770Z,15.12
2019-03-10T12:18:26.747Z,15.22
2019-03-10T12:20:57.443Z,15.30
2019-03-10T12:23:28.277Z,15.35
2019-03-10T12:25:59.075Z,15.48
2019-03-10T12:28:29.777Z,15.41
2019-03-10T12:31:00.574Z,15.34
2019-03-10T12:33:31.443Z,15.22
2019-03-10T12:36:02.219Z,15.11
2019-03-10T12:38:33.074Z,15.24
2019-03-10T12:41:03.897Z,15.31
2019-03-10T12:43:34.516Z,15.31
2019-03-10T12:46:05.387Z,15.30
2019-03-10T12:48:36.086Z,15.42
2019-03-10T12:51:19.338Z,15.38
2019-03-10T12:53:49.746Z,15.41
2019-03-10T12:56:20.616Z,15.23
2019-03-10T12:58:51.415Z,15.21
2019-03-10T13:01:22.236Z,15.31
2019-03-10T13:03:58.791Z,15.39
2019-03-10T13:06:25.731Z,15.41
2019-03-10T13:08:56.532Z,15.61
2019-03-10T13:11:27.502Z,15.90
2019-03-10T13:13:58.326Z,15.94
2019-03-10T13:16:29.163Z,15.92
2019-03-10T13:18:59.979Z,15.78
2019-03-10T13:21:30.796Z,15.72
2019-03-10T13:24:01.756Z,15.86
2019-03-10T13:26:32.426Z,15.94
2019-03-10T13:29:03.223Z,15.97
2019-03-10T13:31:34.175Z,15.98
2019-03-10T13:34:04.866Z,15.95
2019-03-10T13:36:35.630Z,15.95
2019-03-10T13:39:08.097Z,16.03
2019-03-10T13:41:40.390Z,16.28
2019-03-10T13:44:11.625Z,16.34
2019-03-10T13:46:43.913Z,16.30
2019-03-10T13:49:14.796Z,16.38
2019-03-10T13:51:45.470Z,16.36
2019-03-10T13:54:16.267Z,16.49
2019-03-10T13:56:47.141Z,16.46
2019-03-10T13:59:17.934Z,16.64
2019-03-10T14:01:49.018Z,16.65
2019-03-10T14:04:19.847Z,16.34
2019-03-10T14:06:52.207Z,16.13
2019-03-10T14:09:23.055Z,16.09
2019-03-10T14:11:53.919Z,16.13
2019-03-10T14:14:24.622Z,16.16
2019-03-10T14:16:55.377Z,16.10
2019-03-10T14:19:26.295Z,16.10
2019-03-10T14:21:57.143Z,16.07
2019-03-10T14:24:27.737Z,16.07
2019-03-10T14:26:58.488Z,15.87
2019-03-10T14:29:29.197Z,15.60
2019-03-10T14:32:00.012Z,15.09
2019-03-10T14:34:32.005Z,14.92
2019-03-10T14:37:02.746Z,14.99
2019-03-10T14:39:33.663Z,15.22
2019-03-10T14:42:04.549Z,15.41
2019-03-10T14:44:36.268Z,15.27
2019-03-10T14:47:07.041Z,15.27
2019-03-10T14:49:37.866Z,15.61
2019-03-10T14:52:08.683Z,15.85
2019-03-10T14:54:39.335Z,16.05
2019-03-10T14:57:10.111Z,16.10
2019-03-10T14:59:40.907Z,16.02
2019-03-10T15:02:11.762Z,16.15
2019-03-10T15:04:42.585Z,16.15
2019-03-10T15:07:13.351Z,16.26
2019-03-10T15:09:44.148Z,16.30
2019-03-10T15:12:14.999Z,16.30
2019-03-10T15:14:45.783Z,16.35
2019-03-10T15:17:16.575Z,16.33
2019-03-10T15:19:47.454Z,16.27
2019-03-10T15:22:18.339Z,16.29
2019-03-10T15:24:49.068Z,16.34
2019-03-10T15:27:23.529Z,16.58
2019-03-10T15:29:52.273Z,16.33
2019-03-10T15:32:23.303Z,15.95
2019-03-10T15:34:54.049Z,15.85
2019-03-10T15:37:25.071Z,15.68
2019-03-10T15:39:55.686Z,15.36
2019-03-10T15:42:26.471Z,15.28
2019-03-10T15:44:57.257Z,15.23
2019-03-10T15:47:28.134Z,15.09
2019-03-10T15:49:59.062Z,15.06
2019-03-10T15:52:30.057Z,14.98
2019-03-10T15:55:00.841Z,14.91
2019-03-10T15:57:31.506Z,14.95
2019-03-10T16:00:02.309Z,14.89
2019-03-10T16:02:34.832Z,14.85
2019-03-10T16:05:06.132Z,14.80
2019-03-10T16:07:37.069Z,14.84
2019-03-10T16:10:08.285Z,14.83
2019-03-10T16:12:39.238Z,14.89
2019-03-10T16:15:12.216Z,14.90
2019-03-10T16:17:43.024Z,14.90
2019-03-10T16:20:14.084Z,15.00
2019-03-10T16:22:44.964Z,15.08
2019-03-10T16:25:15.751Z,15.18
2019-03-10T16:27:46.738Z,15.12
2019-03-10T16:30:18.167Z,15.03
2019-03-10T16:32:50.152Z,15.00
2019-03-10T16:35:22.298Z,14.90
2019-03-10T16:37:53.494Z,14.75
2019-03-10T16:40:24.369Z,14.55
2019-03-10T16:42:55.321Z,14.46
2019-03-10T16:45:26.140Z,14.33
2019-03-10T16:47:57.740Z,14.28
2019-03-10T16:50:30.677Z,14.22
2019-03-10T16:53:02.564Z,14.17
2019-03-10T16:55:33.363Z,14.00
2019-03-10T16:58:04.257Z,13.92
2019-03-10T17:00:35.047Z,13.82
2019-03-10T17:03:05.960Z,13.69
2019-03-10T17:05:36.826Z,13.62
2019-03-10T17:08:07.639Z,13.55
2019-03-10T17:10:38.431Z,13.49
2019-03-10T17:13:09.479Z,13.40
2019-03-10T17:15:40.165Z,13.43
2019-03-10T17:18:11.309Z,13.36
2019-03-10T17:20:42.135Z,13.32
2019-03-10T17:23:13.058Z,13.22
2019-03-10T17:25:43.946Z,13.21
2019-03-10T17:28:14.721Z,13.24
2019-03-10T17:30:45.523Z,13.21
2019-03-10T17:33:16.495Z,13.24
2019-03-10T17:35:47.190Z,13.08
2019-03-10T17:38:17.858Z,13.05
2019-03-10T17:40:48.735Z,13.00
2019-03-10T17:43:19.693Z,13.01
2019-03-10T17:45:50.406Z,12.97
2019-03-10T17:48:21.229Z,13.02
2019-03-10T17:50:52.071Z,12.88
2019-03-10T17:53:22.947Z,12.77
2019-03-10T17:55:53.787Z,12.84
2019-03-10T17:58:24.815Z,12.81
2019-03-10T18:00:55.464Z,12.71
2019-03-10T18:03:26.328Z,12.64
2019-03-10T18:05:57.231Z,12.69
2019-03-10T18:08:28.187Z,12.66
2019-03-10T18:10:58.895Z,12.73
2019-03-10T18:13:29.562Z,12.64
2019-03-10T18:16:00.354Z,12.57
2019-03-10T18:18:31.067Z,12.41
2019-03-10T18:21:01.835Z,12.36
2019-03-10T18:23:32.876Z,12.31
2019-03-10T18:26:03.584Z,12.31
2019-03-10T18:28:34.250Z,12.24
2019-03-10T18:31:05.145Z,12.17
2019-03-10T18:33:35.840Z,12.20
2019-03-10T18:36:06.728Z,12.26
2019-03-10T18:38:37.603Z,12.22
2019-03-10T18:41:08.530Z,12.28
2019-03-10T18:43:39.271Z,12.25
2019-03-10T18:46:10.201Z,12.22
2019-03-10T18:48:41.240Z,12.27
2019-03-10T18:51:11.836Z,12.30
2019-03-10T18:53:42.728Z,12.27
2019-03-10T18:56:13.544Z,12.14
2019-03-10T18:58:44.319Z,11.38
2019-03-10T19:01:16.146Z,10.95
2019-03-10T19:03:47.222Z,10.93
2019-03-10T19:06:18.020Z,10.77
2019-03-10T19:08:48.865Z,10.82
2019-03-10T19:11:19.591Z,10.78
2019-03-10T19:13:50.327Z,10.25
2019-03-10T19:16:21.053Z,9.79
2019-03-10T19:18:51.722Z,9.54
2019-03-10T19:21:22.616Z,9.62
2019-03-10T19:23:53.438Z,9.82
2019-03-10T19:26:24.215Z,9.84
2019-03-10T19:28:54.971Z,9.88
2019-03-10T19:31:25.826Z,9.82
2019-03-10T19:33:56.345Z,9.86
2019-03-10T19:36:27.028Z,9.76
2019-03-10T19:38:57.703Z,9.68
2019-03-10T19:41:28.455Z,9.63
2019-03-10T19:43:59.655Z,9.67
2019-03-10T19:46:30.372Z,9.78
2019-03-10T19:49:01.714Z,9.73
2019-03-10T19:51:32.410Z,9.74
2019-03-10T19:54:03.206Z,9.76
2019-03-10T19:56:33.994Z,9.78
2019-03-10T19:59:05.167Z,9.84
2019-03-10T20:01:36.002Z,9.89
2019-03-10T20:04:06.782Z,9.91
2019-03-10T20:06:37.570Z,9.92
2019-03-10T20:09:10.036Z,9.87
2019-03-10T20:11:41.926Z,9.89
2019-03-10T20:14:12.811Z,9.90
2019-03-10T20:16:43.740Z,9.91
2019-03-10T20:19:14.702Z,9.95
2019-03-10T20:21:45.522Z,9.93
2019-03-10T20:24:16.538Z,9.94
2019-03-10T20:26:47.349Z,9.96
2019-03-10T20:29:18.480Z,9.95
2019-03-10T20:31:49.247Z,9.95
2019-03-10T20:34:20.163Z,9.84
2019-03-10T20:36:52.286Z,9.72
2019-03-10T20:39:23.266Z,9.57
2019-03-10T20:42:04.480Z,9.48
2019-03-10T20:44:26.573Z,9.59
2019-03-10T20:46:57.555Z,9.60
2019-03-10T20:49:28.543Z,9.64
2019-03-10T20:51:59.156Z,9.55
2019-03-10T20:54:30.274Z,9.53
2019-03-10T20:57:01.058Z,9.75
2019-03-10T20:59:31.830Z,9.74
2019-03-10T21:02:02.632Z,9.69
2019-03-10T21:04:33.493Z,9.82
2019-03-10T21:07:04.258Z,9.73
2019-03-10T21:09:34.974Z,9.64
2019-03-10T21:12:05.838Z,9.63
2019-03-10T21:14:36.615Z,9.61
2019-03-10T21:17:07.337Z,9.63
2019-03-10T21:19:38.275Z,9.58
2019-03-10T21:22:08.901Z,9.59
2019-03-10T21:24:39.735Z,9.54
2019-03-10T21:27:10.578Z,9.60
2019-03-10T21:29:41.364Z,9.59
2019-03-10T21:32:12.007Z,9.60
2019-03-10T21:34:42.978Z,9.57
2019-03-10T21:37:13.689Z,9.55
2019-03-10T21:39:44.772Z,9.58
2019-03-10T21:42:15.390Z,9.49
2019-03-10T21:44:46.241Z,9.48
2019-03-10T21:47:17.126Z,9.46
2019-03-10T21:49:47.902Z,9.46
2019-03-10T21:52:19.186Z,9.43
2019-03-10T21:54:50.724Z,9.45
2019-03-10T21:57:21.605Z,9.43
2019-03-10T21:59:52.410Z,9.39
2019-03-10T22:02:23.166Z,9.29
2019-03-10T22:04:53.966Z,9.29
2019-03-10T22:07:24.780Z,9.33
2019-03-10T22:09:55.664Z,9.28
2019-03-10T22:12:26.494Z,9.30
2019-03-10T22:14:57.250Z,9.28
2019-03-10T22:17:28.139Z,9.08
2019-03-10T22:19:58.958Z,9.04
2019-03-10T22:22:30.614Z,9.00
2019-03-10T22:25:12.135Z,8.98
2019-03-10T22:27:34.141Z,8.93
2019-03-10T22:30:05.389Z,8.92
2019-03-10T22:32:36.233Z,8.85
2019-03-10T22:35:07.465Z,8.85
2019-03-10T22:37:38.534Z,8.76
2019-03-10T22:40:10.027Z,8.64
2019-03-10T22:42:40.929Z,8.62
2019-03-10T22:45:12.131Z,8.68
2019-03-10T22:47:43.856Z,8.57
2019-03-10T22:50:15.036Z,8.52
2019-03-10T22:52:45.918Z,8.45
2019-03-10T22:55:17.079Z,8.41
2019-03-10T22:57:47.765Z,8.42
2019-03-10T23:00:20.879Z,8.45
2019-03-10T23:02:53.521Z,8.38
2019-03-10T23:05:24.112Z,8.31
2019-03-10T23:07:54.901Z,8.25
2019-03-10T23:10:25.583Z,8.18
2019-03-10T23:12:56.350Z,8.14
2019-03-10T23:15:27.102Z,8.21
2019-03-10T23:17:57.931Z,8.23
2019-03-10T23:20:28.797Z,8.25
2019-03-10T23:22:59.564Z,8.23
2019-03-10T23:25:30.494Z,8.21
2019-03-10T23:28:01.345Z,8.24
2019-03-10T23:30:34.470Z,8.22
2019-03-10T23:33:04.553Z,8.22
2019-03-10T23:35:35.230Z,8.18
2019-03-10T23:38:06.809Z,8.11
2019-03-10T23:40:37.734Z,8.11
2019-03-10T23:43:08.497Z,8.02
2019-03-10T23:45:39.362Z,7.81
2019-03-10T23:48:10.077Z,7.65
2019-03-10T23:50:40.855Z,7.60
2019-03-10T23:53:11.562Z,7.56
2019-03-10T23:55:42.213Z,7.45
2019-03-10T23:58:13.246Z,7.33
